Time;durP1;ratioP1;P1;durP2;ratioP2;P2;SDS_P1;SDS_P2;PMS_P1;PMS_P2;Temp;Humidity;BMP_temperature;BMP_pressure;BME280_temperature;BME280_humidity;BME280_pressure;Samples;Min_cycle;Max_cycle;Signal;HPM_P1;HPM_P2
2022/01/06 00:01:43;;;;;;;34.73;20.03;;;;;;;5.20;83.01;96407.09;4954789;28;20208;-83
2022/01/06 00:04:10;;;;;;;30.60;19.17;;;;;;;4.50;83.75;96310.34;4955729;28;20204;-86
2022/01/06 00:06:41;;;;;;;33.13;19.57;;;;;;;4.59;83.72;96340.81;4955157;28;20200;-84
2022/01/06 00:09:14;;;;;;;28.33;18.40;;;;;;;4.95;84.28;96407.09;4976777;28;20223;-87
2022/01/06 00:11:43;;;;;;;25.73;17.20;;;;;;;4.93;83.60;96392.63;4957464;28;20217;-84
2022/01/06 00:25:08;;;;;;;26.23;18.00;;;;;;;4.99;83.19;96424.97;4912982;29;20206;-85
2022/01/06 00:27:35;;;;;;;28.97;16.50;;;;;;;4.65;84.13;96405.56;4943210;28;20215;-86
2022/01/06 00:30:03;;;;;;;27.70;17.63;;;;;;;4.90;83.85;96455.13;4955411;28;20582;-85
2022/01/06 00:32:30;;;;;;;26.57;17.67;;;;;;;4.96;83.79;96438.72;4971956;28;20265;-85
2022/01/06 00:34:57;;;;;;;27.27;16.77;;;;;;;4.72;85.48;96408.75;4954954;28;20229;-85
2022/01/06 00:37:24;;;;;;;27.57;17.13;;;;;;;4.83;85.51;96437.44;4972431;28;20243;-85
2022/01/06 00:39:51;;;;;;;28.70;18.60;;;;;;;4.92;85.12;96437.97;4954919;28;20595;-84
2022/01/06 00:42:19;;;;;;;29.70;18.40;;;;;;;4.77;86.43;96433.38;4972098;28;20621;-84
2022/01/06 00:44:46;;;;;;;29.67;18.50;;;;;;;4.62;86.94;96423.59;4953669;28;20204;-85
2022/01/06 00:47:13;;;;;;;27.63;17.40;;;;;;;4.68;87.31;96428.53;4974729;28;20201;-86
2022/01/06 00:49:43;;;;;;;32.47;19.63;;;;;;;4.59;87.32;96420.31;4972975;28;20192;-85
2022/01/06 00:52:11;;;;;;;31.10;19.13;;;;;;;4.60;87.32;96424.53;4954834;28;20188;-84
2022/01/06 00:54:38;;;;;;;28.10;18.30;;;;;;;4.75;86.89;96455.66;4937974;28;20295;-83
2022/01/06 00:57:07;;;;;;;28.17;17.83;;;;;;;4.66;87.00;96434.59;4971495;28;20196;-85
2022/01/06 00:59:46;;;;;;;31.23;19.27;;;;;;;4.81;86.50;96442.63;4940406;28;20200;-83
2022/01/06 01:02:21;;;;;;;30.10;19.30;;;;;;;4.88;86.50;96445.84;4954906;28;20199;-85
2022/01/06 01:04:53;;;;;;;34.20;21.60;;;;;;;4.87;86.98;96442.44;4973257;28;20245;-86
2022/01/06 01:07:22;;;;;;;31.20;19.23;;;;;;;4.65;86.63;96392.75;4938958;28;20187;-84
2022/01/06 01:09:49;;;;;;;28.90;19.20;;;;;;;4.84;87.20;96422.00;4971743;28;20204;-86
2022/01/06 01:12:16;;;;;;;30.90;18.80;;;;;;;4.88;86.83;96428.69;4971347;28;20196;-85
2022/01/06 01:14:59;;;;;;;31.47;19.10;;;;;;;4.47;86.43;96362.56;4953297;28;20226;-86
2022/01/06 01:17:27;;;;;;;28.83;19.53;;;;;;;4.81;87.12;96409.28;4940744;28;20194;-84
2022/01/06 01:19:54;;;;;;;28.43;18.00;;;;;;;4.69;87.73;96390.91;4970283;28;20244;-84
2022/01/06 01:22:21;;;;;;;28.07;18.17;;;;;;;4.78;87.53;96411.94;4971917;28;20204;-85
2022/01/06 01:24:48;;;;;;;30.93;18.27;;;;;;;4.80;86.84;96374.25;4953471;28;20197;-84
2022/01/06 01:27:20;;;;;;;28.37;18.30;;;;;;;4.89;85.96;96399.59;4971450;28;20320;-86
2022/01/06 01:30:04;;;;;;;33.53;18.50;;;;;;;4.53;86.33;96341.88;4971508;28;20193;-86
2022/01/06 01:32:35;;;;;;;32.40;19.40;;;;;;;4.86;86.36;96386.88;4953802;28;20201;-87
2022/01/06 01:35:04;;;;;;;27.20;18.23;;;;;;;4.67;85.43;96349.09;4971877;28;20252;-84
2022/01/06 01:37:32;;;;;;;27.80;17.87;;;;;;;4.75;84.83;96360.78;4971048;28;20195;-88
2022/01/06 01:39:59;;;;;;;26.67;16.60;;;;;;;5.16;84.68;96402.09;4971686;28;20627;-85
2022/01/06 01:42:28;;;;;;;25.77;17.40;;;;;;;4.74;84.61;96345.44;4953875;28;20193;-84
2022/01/06 01:44:55;;;;;;;23.97;16.43;;;;;;;4.43;85.84;96337.91;4937187;28;20201;-85
2022/01/06 01:47:38;;;;;;;27.17;17.93;;;;;;;4.63;85.77;96373.16;4938099;28;20211;-85
2022/01/06 01:50:18;;;;;;;31.00;17.70;;;;;;;4.73;86.40;96389.91;4970239;28;20248;-84
2022/01/06 01:52:54;;;;;;;25.90;16.30;;;;;;;4.71;86.63;96389.97;4971153;28;20740;-84
2022/01/06 01:55:27;;;;;;;29.17;16.47;;;;;;;4.47;86.21;96331.78;4971597;28;20221;-85
2022/01/06 01:57:55;;;;;;;27.20;16.43;;;;;;;4.43;85.29;96314.84;4966642;28;20672;-86
2022/01/06 02:00:27;;;;;;;26.63;15.93;;;;;;;4.89;85.22;96391.91;4954150;28;20193;-85
2022/01/06 02:02:54;;;;;;;24.53;16.70;;;;;;;4.61;85.24;96352.72;4936432;28;20217;-86
2022/01/06 02:05:26;;;;;;;23.10;16.27;;;;;;;4.88;84.60;96394.53;4971290;28;20201;-85
2022/01/06 02:07:56;;;;;;;29.67;16.37;;;;;;;4.93;84.66;96382.38;4970029;28;20198;-85
2022/01/06 02:10:23;;;;;;;26.93;16.73;;;;;;;4.88;84.68;96392.78;4953306;28;20624;-86
2022/01/06 02:12:53;;;;;;;26.33;15.27;;;;;;;4.95;85.04;96383.16;4969997;28;20240;-86
2022/01/06 02:15:20;;;;;;;26.10;15.73;;;;;;;4.87;84.71;96403.09;4969633;28;20232;-87
2022/01/06 02:17:48;;;;;;;26.97;15.87;;;;;;;4.72;84.39;96399.31;4937977;28;20200;-87
2022/01/06 02:20:18;;;;;;;23.33;14.67;;;;;;;3.50;85.01;96236.81;4936485;28;20666;-85
2022/01/06 02:22:47;;;;;;;22.20;14.83;;;;;;;4.32;85.34;96414.34;4954201;28;20200;-85
2022/01/06 02:25:19;;;;;;;20.93;13.33;;;;;;;3.75;86.81;96372.56;4936215;28;20215;-87
2022/01/06 02:27:50;;;;;;;22.90;14.53;;;;;;;3.81;87.42;96405.69;4970941;28;20680;-87
2022/01/06 02:30:18;;;;;;;22.07;14.37;;;;;;;3.55;88.39;96362.06;4954139;28;20574;-87
2022/01/06 02:32:46;;;;;;;26.40;15.83;;;;;;;3.74;88.74;96410.13;4970518;28;20211;-87
2022/01/06 02:35:17;;;;;;;23.27;14.27;;;;;;;3.77;89.27;96410.03;4953648;28;20220;-87
2022/01/06 02:37:44;;;;;;;20.63;14.23;;;;;;;3.96;88.52;96412.88;4952037;28;20686;-84
2022/01/06 02:40:15;;;;;;;21.53;14.40;;;;;;;3.44;87.31;96292.47;4953534;28;20233;-86
2022/01/06 02:42:49;;;;;;;23.10;14.57;;;;;;;4.10;87.97;96397.97;4969762;28;20198;-85
2022/01/06 02:45:18;;;;;;;24.37;14.73;;;;;;;3.63;87.44;96324.28;4952616;28;20823;-86
2022/01/06 02:47:48;;;;;;;24.80;16.23;;;;;;;4.03;87.99;96386.22;4953055;28;20640;-86
2022/01/06 02:50:17;;;;;;;25.93;15.67;;;;;;;3.89;87.19;96337.13;4969415;28;20621;-87
2022/01/06 02:52:44;;;;;;;24.70;16.47;;;;;;;4.23;86.83;96394.09;4970517;28;20188;-85
2022/01/06 02:55:13;;;;;;;26.23;15.97;;;;;;;4.27;87.88;96390.56;4936265;28;20236;-88
2022/01/06 02:57:42;;;;;;;25.20;15.97;;;;;;;4.16;88.46;96382.38;4937373;28;20207;-88
2022/01/06 03:00:12;;;;;;;25.63;16.33;;;;;;;4.24;87.54;96393.22;4936027;28;20247;-84
2022/01/06 03:02:42;;;;;;;28.80;16.33;;;;;;;4.21;87.70;96388.19;4968906;28;20188;-85
2022/01/06 03:05:11;;;;;;;23.97;15.47;;;;;;;3.84;87.00;96311.66;4952476;28;20196;-84
2022/01/06 03:07:39;;;;;;;25.93;15.70;;;;;;;4.39;87.14;96387.59;4968329;28;20232;-85
2022/01/06 03:10:10;;;;;;;28.07;17.83;;;;;;;4.51;86.61;96389.78;4936280;28;20202;-85
2022/01/06 03:12:40;;;;;;;26.50;17.60;;;;;;;4.41;85.84;96382.44;4952622;28;20660;-83
2022/01/06 03:15:16;;;;;;;26.30;17.77;;;;;;;3.98;87.50;96347.06;4951448;28;20327;-84
2022/01/06 03:17:49;;;;;;;24.67;16.03;;;;;;;3.87;88.70;96354.28;4969126;28;20196;-84
2022/01/06 03:20:19;;;;;;;24.97;16.20;;;;;;;3.92;89.18;96393.38;4969051;28;20672;-84
2022/01/06 03:22:46;;;;;;;24.00;15.33;;;;;;;3.76;90.19;96376.78;4969697;28;20185;-85
2022/01/06 03:25:14;;;;;;;27.67;16.43;;;;;;;3.77;90.79;96394.66;4968329;28;20181;-84
2022/01/06 03:27:42;;;;;;;26.53;16.00;;;;;;;3.77;91.04;96404.91;4971209;28;20189;-84
2022/01/06 03:30:16;;;;;;;25.37;16.87;;;;;;;3.39;91.27;96342.91;4969586;28;20185;-84
2022/01/06 03:32:44;;;;;;;26.30;16.73;;;;;;;3.73;91.31;96405.88;4969518;28;20580;-83
2022/01/06 03:35:15;;;;;;;26.20;16.67;;;;;;;3.64;91.05;96382.28;4969318;28;20258;-84
2022/01/06 03:37:43;;;;;;;33.67;18.20;;;;;;;3.87;90.94;96418.28;4968537;28;20186;-86
2022/01/06 03:40:11;;;;;;;28.67;18.27;;;;;;;3.49;90.11;96352.00;4969889;28;20192;-84
2022/01/06 03:42:38;;;;;;;28.00;18.37;;;;;;;3.91;90.29;96419.88;4951168;28;20196;-85
2022/01/06 03:45:10;;;;;;;27.97;17.60;;;;;;;3.87;89.82;96423.41;4970744;28;20190;-86
2022/01/06 03:47:37;;;;;;;26.87;17.03;;;;;;;3.45;89.52;96360.66;4969047;28;20287;-84
2022/01/06 03:50:05;;;;;;;27.43;15.97;;;;;;;3.83;89.36;96421.84;4936219;28;20212;-88
2022/01/06 03:52:32;;;;;;;26.43;15.87;;;;;;;3.88;88.27;96420.81;4935848;28;20201;-84
2022/01/06 03:54:59;;;;;;;26.33;15.73;;;;;;;3.30;88.69;96329.50;4951182;28;20560;-84
2022/01/06 03:57:28;;;;;;;24.90;15.37;;;;;;;3.25;88.80;96323.72;4951951;28;20680;-84
2022/01/06 03:59:55;;;;;;;26.20;15.57;;;;;;;3.87;88.82;96410.63;4968394;28;20192;-85
2022/01/06 04:02:25;;;;;;;25.23;15.60;;;;;;;3.44;88.30;96320.59;4953133;28;20196;-85
2022/01/06 04:04:52;;;;;;;25.13;15.47;;;;;;;3.98;88.41;96408.53;4968582;28;20197;-86
2022/01/06 04:07:19;;;;;;;26.37;16.40;;;;;;;3.90;87.75;96407.94;4952663;28;20217;-88
2022/01/06 04:09:46;;;;;;;32.40;15.27;;;;;;;3.82;87.98;96407.34;4936710;28;20190;-85
2022/01/06 04:12:14;;;;;;;24.30;16.40;;;;;;;3.73;87.92;96403.31;4951558;28;20198;-85
2022/01/06 04:14:41;;;;;;;25.60;16.77;;;;;;;3.63;87.74;96366.06;4951834;28;20197;-84
2022/01/06 04:17:09;;;;;;;25.23;15.80;;;;;;;3.89;88.18;96419.09;4969046;28;20231;-87
2022/01/06 04:19:36;;;;;;;28.07;17.37;;;;;;;3.45;88.21;96373.44;4971518;28;20221;-85
2022/01/06 04:22:05;;;;;;;27.60;17.07;;;;;;;3.34;89.37;96403.63;4969657;28;20642;-91
2022/01/06 04:24:34;;;;;;;25.50;14.87;;;;;;;3.16;90.83;96420.31;4953151;28;20236;-91
2022/01/06 04:27:05;;;;;;;21.87;15.10;;;;;;;3.16;91.56;96431.38;4938179;28;20702;-89
2022/01/06 04:29:36;;;;;;;25.27;16.63;;;;;;;2.89;92.35;96398.03;4937904;28;20249;-86
2022/01/06 04:32:04;;;;;;;25.50;15.23;;;;;;;3.09;92.79;96434.97;4954803;28;20204;-86
2022/01/06 04:34:31;;;;;;;27.10;16.70;;;;;;;3.18;93.06;96432.19;4954135;28;20196;-87
2022/01/06 04:37:00;;;;;;;20.43;13.53;;;;;;;2.83;92.95;96376.03;4955597;28;20224;-86
2022/01/06 04:39:27;;;;;;;20.47;13.97;;;;;;;2.79;92.30;96361.66;4954600;28;20192;-94
2022/01/06 04:41:55;;;;;;;24.70;12.93;;;;;;;3.27;92.61;96424.28;4938224;28;20224;-86
2022/01/06 04:44:22;;;;;;;20.70;12.47;;;;;;;2.99;91.77;96377.28;4972495;28;20229;-83
2022/01/06 04:46:49;;;;;;;21.50;12.83;;;;;;;3.34;92.01;96442.84;4972062;28;20209;-82
2022/01/06 04:49:16;;;;;;;20.67;12.90;;;;;;;3.22;91.91;96410.75;4972509;28;20236;-84
2022/01/06 04:51:44;;;;;;;23.27;15.10;;;;;;;3.37;91.47;96399.25;4954997;28;20204;-84
2022/01/06 04:54:11;;;;;;;21.23;13.90;;;;;;;3.54;90.87;96406.47;4974906;28;20276;-83
2022/01/06 04:56:39;;;;;;;20.93;13.57;;;;;;;3.88;89.92;96443.00;4974291;28;20745;-86
2022/01/06 04:59:09;;;;;;;27.80;15.77;;;;;;;3.72;88.66;96413.63;4976463;28;20196;-82
2022/01/06 05:01:38;;;;;;;25.10;16.90;;;;;;;4.03;87.81;96447.69;4974857;28;20192;-83
2022/01/06 05:04:06;;;;;;;26.47;16.30;;;;;;;3.92;87.98;96418.97;4975744;28;20266;-84
2022/01/06 05:06:34;;;;;;;28.37;16.73;;;;;;;3.78;86.93;96380.16;4959633;28;20208;-81
2022/01/06 05:09:04;;;;;;;27.00;17.43;;;;;;;4.20;86.70;96450.59;4982500;28;20229;-84
2022/01/06 05:11:32;;;;;;;33.93;17.90;;;;;;;3.62;86.18;96350.78;4977547;28;20189;-83
2022/01/06 05:14:00;;;;;;;30.63;18.07;;;;;;;4.23;85.74;96444.50;4957828;28;20618;-82
2022/01/06 05:16:27;;;;;;;32.97;18.97;;;;;;;3.75;85.34;96377.69;4966960;28;20332;-86
2022/01/06 05:19:09;;;;;;;35.47;19.87;;;;;;;4.07;84.42;96446.72;4963607;28;20191;-82
2022/01/06 05:21:47;;;;;;;42.87;22.27;;;;;;;3.75;86.20;96449.38;4952177;28;20252;-90
2022/01/06 05:24:20;;;;;;;40.23;22.97;;;;;;;3.63;86.37;96449.69;4952760;29;20202;-89
2022/01/06 05:26:47;;;;;;;32.50;18.40;;;;;;;3.03;86.92;96385.75;4936206;29;20190;-86
2022/01/06 05:29:16;;;;;;;34.00;21.13;;;;;;;3.10;86.73;96426.44;4948911;28;20198;-83
2022/01/06 05:31:43;;;;;;;27.00;16.80;;;;;;;2.95;87.17;96411.50;4970302;28;20199;-88
2022/01/06 05:34:11;;;;;;;30.93;18.07;;;;;;;2.82;86.30;96397.38;4953292;28;20287;-89
2022/01/06 05:36:41;;;;;;;25.27;15.27;;;;;;;2.37;87.09;96360.19;4953510;28;20709;-89
2022/01/06 05:39:10;;;;;;;23.80;14.40;;;;;;;2.83;87.22;96462.09;4938184;28;20251;-88
2022/01/06 05:41:37;;;;;;;26.13;15.73;;;;;;;2.69;87.76;96462.44;4952243;28;20204;-89
2022/01/06 05:44:05;;;;;;;23.90;14.70;;;;;;;2.40;88.97;96423.97;4937957;28;20295;-89
2022/01/06 05:46:34;;;;;;;33.60;20.37;;;;;;;2.19;89.93;96371.69;4924147;28;20208;-89
2022/01/06 05:49:02;;;;;;;33.43;19.10;;;;;;;2.11;90.26;96359.97;4937223;28;20204;-88
2022/01/06 05:51:30;;;;;;;24.90;16.27;;;;;;;2.85;90.24;96476.53;4953984;28;20208;-88
2022/01/06 05:53:57;;;;;;;32.53;18.17;;;;;;;2.71;91.00;96460.69;4920649;28;20200;-87
2022/01/06 05:56:27;;;;;;;34.57;20.17;;;;;;;2.71;90.52;96424.06;4937607;28;20755;-88
2022/01/06 05:58:59;;;;;;;29.20;17.83;;;;;;;2.99;90.66;96469.34;4953246;28;20281;-88
2022/01/06 06:01:29;;;;;;;38.23;21.00;;;;;;;2.38;90.39;96357.59;4938818;28;20192;-88
2022/01/06 06:03:57;;;;;;;42.50;22.07;;;;;;;3.02;90.00;96458.22;4937900;28;20224;-88
2022/01/06 06:06:25;;;;;;;33.93;20.07;;;;;;;3.07;90.13;96472.53;4936417;28;20197;-88
2022/01/06 06:08:55;;;;;;;37.17;21.33;;;;;;;2.44;89.43;96346.38;4953927;28;20192;-89
2022/01/06 06:11:22;;;;;;;32.67;20.33;;;;;;;3.01;89.95;96484.69;4936988;28;20192;-88
2022/01/06 06:13:49;;;;;;;37.63;20.57;;;;;;;3.02;90.75;96478.66;4954601;28;20228;-89
2022/01/06 06:16:25;;;;;;;33.97;20.73;;;;;;;2.97;92.13;96485.59;4936644;28;20227;-88
2022/01/06 06:18:53;;;;;;;37.37;20.70;;;;;;;2.89;92.04;96452.56;4938554;28;20225;-89
2022/01/06 06:21:20;;;;;;;31.00;18.73;;;;;;;2.86;91.80;96449.25;4953677;28;20255;-88
2022/01/06 06:23:47;;;;;;;35.50;21.43;;;;;;;2.96;92.39;96466.88;4952429;28;20200;-89
2022/01/06 06:26:15;;;;;;;36.20;21.83;;;;;;;2.95;94.09;96474.56;4937265;28;20708;-88
2022/01/06 06:28:42;;;;;;;34.93;21.60;;;;;;;2.56;93.41;96404.84;4936495;28;20652;-88
2022/01/06 06:31:10;;;;;;;35.30;20.90;;;;;;;2.93;94.17;96472.06;4953927;28;20192;-88
2022/01/06 06:33:40;;;;;;;32.60;19.93;;;;;;;2.92;94.01;96459.31;4953279;28;20197;-88
2022/01/06 06:36:08;;;;;;;31.90;18.60;;;;;;;2.95;94.20;96462.63;4937572;28;20235;-88
2022/01/06 06:38:36;;;;;;;30.37;18.63;;;;;;;3.06;93.73;96455.53;4921841;28;20733;-89
2022/01/06 06:41:04;;;;;;;34.47;18.60;;;;;;;3.29;92.95;96473.69;4935963;28;20525;-88
2022/01/06 06:43:34;;;;;;;26.03;16.63;;;;;;;3.44;93.47;96492.06;4953727;28;20195;-89
2022/01/06 06:46:04;;;;;;;33.63;17.80;;;;;;;3.22;92.21;96446.56;4935855;28;20626;-88
2022/01/06 06:48:40;;;;;;;31.03;18.87;;;;;;;3.59;91.98;96481.38;4938392;28;20767;-87
2022/01/06 06:51:10;;;;;;;29.87;17.77;;;;;;;3.63;91.00;96467.63;4937059;28;20193;-89
2022/01/06 06:53:37;;;;;;;37.13;21.70;;;;;;;3.56;89.41;96433.72;4919988;28;20212;-89
2022/01/06 06:56:04;;;;;;;32.60;20.20;;;;;;;4.04;88.81;96495.47;4936463;28;20678;-89
2022/01/06 06:58:32;;;;;;;31.47;19.33;;;;;;;4.06;88.01;96493.69;4920000;28;20615;-89
2022/01/06 07:01:03;;;;;;;32.20;20.57;;;;;;;4.18;87.81;96508.72;4936979;28;20647;-88
2022/01/06 07:03:31;;;;;;;38.30;21.20;;;;;;;4.04;87.38;96469.84;4952022;28;20248;-89
2022/01/06 07:06:04;;;;;;;38.27;21.93;;;;;;;4.27;86.91;96507.59;4953115;28;20280;-89
2022/01/06 07:08:31;;;;;;;35.03;21.27;;;;;;;4.14;86.56;96490.03;4937063;28;20232;-89
2022/01/06 07:10:59;;;;;;;40.83;20.57;;;;;;;3.91;86.21;96465.97;4951922;28;20384;-88
2022/01/06 07:13:26;;;;;;;35.73;21.23;;;;;;;3.28;87.79;96400.34;4921568;28;20224;-89
2022/01/06 07:15:54;;;;;;;36.07;21.37;;;;;;;3.83;88.56;96517.41;4952158;28;20799;-90
2022/01/06 07:18:22;;;;;;;29.60;18.63;;;;;;;3.87;89.24;96513.06;4937691;28;20229;-91
2022/01/06 07:20:50;;;;;;;30.90;18.87;;;;;;;3.97;88.60;96529.84;4937084;28;20734;-89
2022/01/06 07:23:18;;;;;;;30.30;19.93;;;;;;;4.11;88.46;96532.84;4922738;28;20207;-89
2022/01/06 07:25:47;;;;;;;29.33;16.90;;;;;;;4.14;87.90;96537.88;4938926;28;20342;-90
2022/01/06 07:28:14;;;;;;;26.97;16.40;;;;;;;3.54;87.98;96445.72;4908478;28;20205;-89
2022/01/06 07:30:51;;;;;;;25.83;16.73;;;;;;;3.81;88.68;96519.16;4973676;28;20283;-89
2022/01/06 07:33:19;;;;;;;29.40;18.60;;;;;;;3.85;88.43;96510.50;4954399;28;20200;-88
2022/01/06 07:35:47;;;;;;;33.33;19.20;;;;;;;3.75;88.75;96503.97;4923685;28;20217;-90
2022/01/06 07:38:14;;;;;;;28.90;18.07;;;;;;;3.25;88.65;96414.97;4937102;28;20219;-89
2022/01/06 07:40:42;;;;;;;31.67;17.97;;;;;;;4.02;88.08;96520.28;4954209;28;20200;-89
2022/01/06 07:43:09;;;;;;;32.53;18.93;;;;;;;3.94;88.14;96499.16;4938895;28;20212;-89
2022/01/06 07:45:38;;;;;;;29.73;18.17;;;;;;;4.13;87.87;96536.19;4939005;28;20194;-92
2022/01/06 07:48:15;;;;;;;27.50;17.90;;;;;;;4.01;88.93;96505.81;4922028;28;20625;-90
2022/01/06 07:50:46;;;;;;;28.13;18.10;;;;;;;4.04;87.92;96491.19;4937211;28;20207;-90
2022/01/06 07:53:13;;;;;;;27.83;17.60;;;;;;;4.43;87.99;96539.59;4954805;28;20217;-88
2022/01/06 07:55:42;;;;;;;29.13;17.67;;;;;;;4.17;87.51;96480.56;4937196;28;20261;-87
2022/01/06 07:58:12;;;;;;;26.50;17.13;;;;;;;4.27;87.31;96477.69;4922981;28;20205;-92
2022/01/06 08:00:44;;;;;;;25.60;17.40;;;;;;;4.83;87.54;96530.63;4953768;28;20287;-89
2022/01/06 08:03:15;;;;;;;24.83;16.13;;;;;;;5.00;85.95;96542.91;4956193;28;20249;-89
2022/01/06 08:05:43;;;;;;;27.87;16.93;;;;;;;5.00;86.32;96486.47;4953959;28;20189;-89
2022/01/06 08:08:16;;;;;;;34.13;18.10;;;;;;;5.53;84.52;96548.84;4958974;28;20204;-87
2022/01/06 08:10:45;;;;;;;35.53;18.80;;;;;;;5.58;84.24;96511.03;4943769;28;20197;-88
2022/01/06 08:13:16;;;;;;;49.57;27.83;;;;;;;5.85;83.31;96540.06;4958724;28;20240;-89
2022/01/06 08:15:46;;;;;;;35.10;23.47;;;;;;;5.54;82.68;96463.22;4942790;28;20209;-88
2022/01/06 08:18:15;;;;;;;30.73;17.87;;;;;;;5.97;83.23;96545.63;4955709;28;20195;-89
2022/01/06 08:20:43;;;;;;;28.03;17.77;;;;;;;5.65;82.55;96479.06;4955903;28;20199;-89
2022/01/06 08:23:12;;;;;;;29.60;18.97;;;;;;;5.84;82.97;96487.00;4957740;28;20208;-90
2022/01/06 08:25:39;;;;;;;31.70;18.93;;;;;;;6.27;81.66;96549.66;4959113;28;20191;-88
2022/01/06 08:28:07;;;;;;;34.73;19.93;;;;;;;6.18;82.16;96533.72;4971300;28;20289;-89
2022/01/06 08:30:35;;;;;;;35.40;17.57;;;;;;;6.19;81.66;96520.81;4938172;28;20675;-90
2022/01/06 08:33:03;;;;;;;26.37;16.83;;;;;;;6.47;82.77;96554.88;4959127;28;20186;-89
2022/01/06 08:35:30;;;;;;;23.20;15.13;;;;;;;6.40;82.33;96537.19;4940995;28;20615;-88
2022/01/06 08:38:01;;;;;;;20.43;14.27;;;;;;;6.39;81.68;96569.75;4939502;28;20253;-87
2022/01/06 08:40:28;;;;;;;26.63;16.30;;;;;;;6.14;82.28;96509.84;4909376;28;20902;-88
2022/01/06 08:42:57;;;;;;;25.03;17.27;;;;;;;6.19;82.49;96494.25;4923073;28;20208;-89
2022/01/06 08:45:24;;;;;;;27.50;15.90;;;;;;;6.66;83.33;96569.66;4925258;28;20202;-89
2022/01/06 08:47:52;;;;;;;27.83;17.43;;;;;;;5.82;83.93;96438.22;4923065;28;20200;-88
2022/01/06 08:50:19;;;;;;;36.47;23.60;;;;;;;6.56;84.86;96549.41;4923733;28;20219;-88
2022/01/06 08:52:47;;;;;;;34.70;20.57;;;;;;;6.72;83.87;96546.25;4954925;28;20206;-88
2022/01/06 08:55:14;;;;;;;34.27;19.43;;;;;;;6.71;83.16;96514.53;4938111;28;20204;-89
2022/01/06 08:57:42;;;;;;;26.53;18.70;;;;;;;7.12;82.21;96566.94;4922802;28;20259;-89
2022/01/06 09:00:14;;;;;;;32.50;20.50;;;;;;;7.24;82.37;96556.16;4923337;28;20280;-88
2022/01/06 09:02:42;;;;;;;43.27;21.93;;;;;;;7.24;81.44;96563.88;4922936;28;20192;-89
2022/01/06 09:05:13;;;;;;;39.83;22.20;;;;;;;7.20;81.47;96542.56;4922014;28;20236;-88
2022/01/06 09:07:41;;;;;;;35.70;19.67;;;;;;;7.17;81.48;96516.94;4938934;28;20211;-89
2022/01/06 09:10:09;;;;;;;33.73;20.50;;;;;;;7.53;81.61;96563.53;4923203;28;20383;-89
2022/01/06 09:12:37;;;;;;;33.17;19.93;;;;;;;7.03;81.91;96456.59;4955756;28;20241;-88
2022/01/06 09:15:08;;;;;;;32.00;19.50;;;;;;;7.41;80.85;96502.22;4956541;28;20259;-88
2022/01/06 09:17:38;;;;;;;43.50;20.10;;;;;;;7.44;80.50;96481.47;4937306;28;20299;-88
2022/01/06 09:20:08;;;;;;;32.67;19.10;;;;;;;7.97;80.38;96556.50;4939769;28;20224;-87
2022/01/06 09:22:41;;;;;;;26.97;17.40;;;;;;;8.04;79.96;96556.16;4940805;28;20200;-88
2022/01/06 09:25:13;;;;;;;27.53;17.23;;;;;;;8.03;79.29;96551.06;4962264;28;20232;-88
2022/01/06 09:27:41;;;;;;;29.33;18.17;;;;;;;7.88;79.22;96534.53;4954279;28;20262;-88
2022/01/06 09:30:11;;;;;;;29.37;18.10;;;;;;;7.54;78.98;96449.28;4922301;28;20810;-87
2022/01/06 09:32:40;;;;;;;29.93;18.27;;;;;;;7.95;79.97;96517.91;4972754;28;20228;-88
2022/01/06 09:35:08;;;;;;;36.00;18.53;;;;;;;7.83;79.56;96489.25;4952822;28;20220;-88
2022/01/06 09:37:35;;;;;;;25.67;16.43;;;;;;;7.90;79.03;96475.16;4954523;28;20260;-88
2022/01/06 09:40:06;;;;;;;27.00;17.60;;;;;;;8.01;78.74;96499.59;4940082;28;20707;-87
2022/01/06 09:42:35;;;;;;;29.40;20.43;;;;;;;8.32;78.87;96542.94;4954693;28;20204;-87
2022/01/06 09:45:05;;;;;;;31.03;17.97;;;;;;;8.36;79.13;96536.72;4954057;28;20201;-88
2022/01/06 09:47:33;;;;;;;26.07;17.63;;;;;;;8.31;79.32;96530.91;4937503;28;20191;-87
2022/01/06 09:50:09;;;;;;;30.07;19.93;;;;;;;8.50;79.53;96539.50;4971696;28;20255;-88
2022/01/06 09:52:36;;;;;;;28.37;18.90;;;;;;;8.54;78.51;96535.88;4937322;28;20586;-87
2022/01/06 09:55:05;;;;;;;30.50;19.40;;;;;;;8.53;78.27;96507.56;4922920;28;20204;-87
2022/01/06 09:57:33;;;;;;;25.47;18.83;;;;;;;8.71;77.90;96543.69;4921975;28;20306;-89
2022/01/06 10:00:05;;;;;;;28.47;19.17;;;;;;;8.36;78.33;96492.88;4923260;28;20775;-88
2022/01/06 10:02:39;;;;;;;29.60;19.30;;;;;;;8.56;79.47;96540.97;4908714;28;20238;-88
2022/01/06 10:05:09;;;;;;;34.33;21.37;;;;;;;8.65;79.24;96527.66;4936013;28;20283;-90
2022/01/06 10:07:39;;;;;;;25.27;17.60;;;;;;;8.70;79.35;96533.41;4922838;28;20224;-88
2022/01/06 10:10:12;;;;;;;27.93;18.03;;;;;;;8.12;78.81;96457.81;4920548;28;20205;-89
2022/01/06 10:12:43;;;;;;;27.73;17.33;;;;;;;8.44;78.65;96477.88;4953457;28;20236;-88
2022/01/06 10:15:19;;;;;;;29.37;19.37;;;;;;;8.65;77.93;96517.31;4955683;28;20292;-88
2022/01/06 10:17:48;;;;;;;30.60;18.60;;;;;;;8.75;79.30;96539.22;4954027;28;20235;-90
2022/01/06 10:20:27;;;;;;;30.80;19.60;;;;;;;8.84;78.89;96554.28;4924682;28;20230;-87
2022/01/06 10:22:57;;;;;;;30.83;20.30;;;;;;;8.96;79.38;96548.53;4952665;28;20211;-87
2022/01/06 10:25:31;;;;;;;33.10;22.10;;;;;;;9.00;78.79;96542.31;4938245;28;20199;-87
2022/01/06 10:28:24;;;;;;;33.90;22.60;;;;;;;9.09;78.94;96528.94;4952906;28;20247;-88
2022/01/06 10:30:52;;;;;;;31.17;22.17;;;;;;;9.14;78.23;96511.50;4969544;28;20193;-89
2022/01/06 10:33:33;;;;;;;25.90;18.20;;;;;;;9.26;78.01;96522.97;4940205;28;20303;-89
2022/01/06 10:36:06;;;;;;;28.53;18.10;;;;;;;9.03;78.23;96449.19;4938673;28;20200;-89
2022/01/06 10:38:41;;;;;;;26.33;17.43;;;;;;;9.54;77.84;96516.38;4955594;28;20255;-89
2022/01/06 10:41:18;;;;;;;29.07;17.93;;;;;;;9.71;77.62;96528.44;4907233;28;20274;-89
2022/01/06 10:43:55;;;;;;;24.00;16.47;;;;;;;9.61;76.89;96485.88;4918978;28;20208;-86
2022/01/06 10:46:44;;;;;;;28.63;17.43;;;;;;;9.86;76.34;96514.75;4956755;28;20213;-88
2022/01/06 10:49:20;;;;;;;25.80;16.33;;;;;;;10.10;76.19;96526.44;4938011;28;20212;-88
2022/01/06 10:51:53;;;;;;;29.37;18.17;;;;;;;10.20;75.85;96521.63;4954819;28;20638;-87
2022/01/06 10:54:25;;;;;;;28.00;18.60;;;;;;;9.91;75.49;96463.63;4954514;28;20817;-87
2022/01/06 10:57:12;;;;;;;34.40;19.63;;;;;;;10.39;75.40;96523.16;4935771;28;20224;-88
2022/01/06 10:59:39;;;;;;;28.30;20.70;;;;;;;10.35;75.60;96516.47;4950787;28;20224;-87
2022/01/06 11:02:08;;;;;;;31.27;21.80;;;;;;;10.41;74.93;96494.59;4919459;28;20205;-88
2022/01/06 11:04:36;;;;;;;29.70;21.07;;;;;;;10.26;75.12;96457.44;4970060;28;20664;-87
2022/01/06 11:07:04;;;;;;;33.20;21.80;;;;;;;10.09;74.15;96420.44;4935997;28;20280;-89
2022/01/06 11:09:32;;;;;;;34.20;21.17;;;;;;;10.33;74.35;96424.31;4951359;28;20202;-89
2022/01/06 11:14:29;;;;;;;31.33;20.13;;;;;;;10.49;73.23;96427.72;4935959;28;20332;-88
2022/01/06 11:16:58;;;;;;;34.30;21.27;;;;;;;10.96;73.06;96492.44;4938040;28;20229;-88
2022/01/06 11:19:28;;;;;;;32.03;22.67;;;;;;;10.93;73.38;96477.88;4935151;28;20215;-88
2022/01/06 11:22:01;;;;;;;48.43;25.50;;;;;;;10.45;72.92;96406.34;4953528;28;20205;-89
2022/01/06 11:24:28;;;;;;;37.40;23.17;;;;;;;10.67;73.71;96462.97;4937074;28;20236;-88
2022/01/06 11:27:10;;;;;;;35.67;22.07;;;;;;;10.69;73.70;96462.88;4921480;28;20292;-89
2022/01/06 11:29:41;;;;;;;33.73;22.13;;;;;;;10.69;73.22;96461.13;4938421;28;20691;-89
2022/01/06 11:32:22;;;;;;;40.77;23.67;;;;;;;9.98;72.46;96324.47;4937199;28;20195;-89
2022/01/06 11:35:07;;;;;;;41.97;25.23;;;;;;;11.12;72.66;96493.22;4954511;28;20197;-89
2022/01/06 11:37:52;;;;;;;40.53;24.10;;;;;;;10.75;72.68;96437.47;4937438;28;20236;-88
2022/01/06 11:40:35;;;;;;;38.40;24.37;;;;;;;10.59;72.62;96415.94;4954649;28;20228;-88
2022/01/06 11:43:08;;;;;;;49.93;25.10;;;;;;;11.21;71.61;96488.34;4976510;28;20200;-89
2022/01/06 11:45:37;;;;;;;46.03;23.77;;;;;;;10.74;72.78;96435.78;4959047;28;20235;-89
2022/01/06 11:48:17;;;;;;;42.63;24.43;;;;;;;11.08;71.88;96471.84;4930534;28;20201;-87
2022/01/06 11:50:51;;;;;;;32.03;20.90;;;;;;;10.58;73.13;96398.72;4927507;28;20655;-88